Orangeville, Indiana
Current Conditions -  °F | °C
As of 9:53 AM on Monday 22 Dec 2014 (Local Time) from KBMG Reporting Station
Overcast Overcast  
Wind Chill: 32°   Ceiling: 1100
Heat Index: 36°   Visibility: 9mi
Dew Point: 31°   Wind: 5mph
Humidity: 82%   Direction: 140°SE
Pressure: 29.93"   Gusts: NA
Location:  38.6433°N, 86.4481°W
Report Text: KBMG 221453Z 14004KT 9SM OVC011 02/M01 A2993 RMK AO2 SLP142 T00221006 55004
Loading
Personal Weather Stations






























Interactive Weather Map New forecast layout! Learn more

10-Day Weather Forecast

Advertisements
Track Severe Weather on mobile